PWSweather.com
Personal Weather Stations
Station Observations
VPOKROGLO
Kal Nad Kanalom, PrimorskaSI

Kal Nad KanalomPrimorskaSI

Lat: 46.072, Lon: 13.734

Elevation: 2526

Station Type: WS-2355

http://www.okroglovreme.com

High Low Average
Temperature 46.0°F7.8°C 32.5°F0.3°C 39.1°F3.9°C
Dew Point 31.6°F-0.2°C 13.5°F-10.3°C 19.7°F-6.8°C
Winds 12.5 mph 20.1 kmh Calm Calm 4.0 mph SE6.4 kmh SE
Wind Gusts 23.7 mph38.1 kmh -- 9.0 mph14.5 kmh
Humidity 91% 34% 48%
Pressure 29.90 in1012.5 mb 29.40 in995.6 mb -
Precipitation 0.00 in0.0 mm - -
Hour Temp Dew Point Humidity Winds Wind Gusts Pressure Precip Precip Rate Daily Precip Total
07:24 AM 36.0°F2.2°C 21.9°F-5.6°C 57% 10.7 mph N17.2 kmh N 10.7 mph17.2 kmh 29.53 in1000.0 mb 0.00 in0.0 mm 0.00 in/hr0.0 mm/hr 0.00 in0.0 mm
07:25 AM 34.2°F1.2°C 31.6°F-0.2°C 90% 1.1 mph E1.8 kmh E 1.1 mph1.8 kmh 29.42 in996.3 mb 0.00 in0.0 mm 0.00 in/hr0.0 mm/hr 0.00 in0.0 mm
07:30 AM 34.9°F1.6°C 20.7°F-6.3°C 56% 2.8 mph N4.5 kmh N 11.4 mph18.3 kmh 29.52 in999.7 mb 0.00 in0.0 mm 0.00 in/hr0.0 mm/hr 0.00 in0.0 mm
07:45 AM 35.2°F1.8°C 20.7°F-6.3°C 55% 2.0 mph N3.2 kmh N 6.3 mph10.1 kmh 29.53 in1000.0 mb 0.00 in0.0 mm 0.00 in/hr0.0 mm/hr 0.00 in0.0 mm
08:00 AM 34.9°F1.6°C 20.3°F-6.5°C 55% 1.5 mph N2.4 kmh N 9.8 mph15.8 kmh 29.55 in1000.7 mb 0.00 in0.0 mm 0.00 in/hr0.0 mm/hr 0.00 in0.0 mm
08:15 AM 34.3°F1.3°C 20.2°F-6.6°C 56% 1.4 mph N2.3 kmh N 3.4 mph5.5 kmh 29.55 in1000.7 mb 0.00 in0.0 mm 0.00 in/hr0.0 mm/hr 0.00 in0.0 mm
08:30 AM 34.2°F1.2°C 20.4°F-6.4°C 57% 1.4 mph N2.3 kmh N 4.0 mph6.4 kmh 29.55 in1000.7 mb 0.00 in0.0 mm 0.00 in/hr0.0 mm/hr 0.00 in0.0 mm
08:45 AM 34.2°F1.2°C 20.4°F-6.4°C 57% 1.8 mph N2.9 kmh N 3.1 mph5.0 kmh 29.56 in1001.0 mb 0.00 in0.0 mm 0.00 in/hr0.0 mm/hr 0.00 in0.0 mm
09:00 AM 34.0°F1.1°C 20.7°F-6.3°C 58% 1.9 mph N3.1 kmh N 5.8 mph9.3 kmh 29.56 in1001.0 mb 0.00 in0.0 mm 0.00 in/hr0.0 mm/hr 0.00 in0.0 mm
09:15 AM 34.7°F1.5°C 20.1°F-6.6°C 55% 0.7 mph N1.1 kmh N 2.9 mph4.7 kmh 29.57 in1001.4 mb 0.00 in0.0 mm 0.00 in/hr0.0 mm/hr 0.00 in0.0 mm
09:30 AM 35.4°F1.9°C 20.4°F-6.4°C 54% 1.1 mph N1.8 kmh N 4.7 mph7.6 kmh 29.58 in1001.7 mb 0.00 in0.0 mm 0.00 in/hr0.0 mm/hr 0.00 in0.0 mm
09:45 AM 36.3°F2.4°C 20.4°F-6.4°C 52% 2.6 mph N4.2 kmh N 11.4 mph18.3 kmh 29.57 in1001.4 mb 0.00 in0.0 mm 0.00 in/hr0.0 mm/hr 0.00 in0.0 mm
10:00 AM 37.2°F2.9°C 19.8°F-6.8°C 49% 1.9 mph SSW3.1 kmh SSW 5.1 mph8.2 kmh 29.59 in1002.0 mb 0.00 in0.0 mm 0.00 in/hr0.0 mm/hr 0.00 in0.0 mm
10:15 AM 37.9°F3.3°C 19.9°F-6.7°C 48% 1.3 mph SSE2.1 kmh SSE 4.9 mph7.9 kmh 29.59 in1002.0 mb 0.00 in0.0 mm 0.00 in/hr0.0 mm/hr 0.00 in0.0 mm
10:30 AM 39.0°F3.9°C 19.9°F-6.7°C 46% 1.7 mph ESE2.7 kmh ESE 7.2 mph11.6 kmh 29.60 in1002.4 mb 0.00 in0.0 mm 0.00 in/hr0.0 mm/hr 0.00 in0.0 mm
10:45 AM 39.6°F4.2°C 19.8°F-6.8°C 45% 1.4 mph WSW2.3 kmh WSW 6.3 mph10.1 kmh 29.61 in1002.7 mb 0.00 in0.0 mm 0.00 in/hr0.0 mm/hr 0.00 in0.0 mm
11:00 AM 39.9°F4.4°C 19.6°F-6.9°C 44% 1.3 mph SW2.1 kmh SW 3.8 mph6.1 kmh 29.61 in1002.7 mb 0.00 in0.0 mm 0.00 in/hr0.0 mm/hr 0.00 in0.0 mm
11:15 AM 40.6°F4.8°C 19.2°F-7.1°C 43% 2.5 mph SW4.0 kmh SW 9.2 mph14.8 kmh 29.61 in1002.7 mb 0.00 in0.0 mm 0.00 in/hr0.0 mm/hr 0.00 in0.0 mm
11:30 AM 41.2°F5.1°C 18.7°F-7.4°C 40% 2.5 mph SW4.0 kmh SW 7.2 mph11.6 kmh 29.62 in1003.0 mb 0.00 in0.0 mm 0.00 in/hr0.0 mm/hr 0.00 in0.0 mm
11:45 AM 41.7°F5.4°C 19.1°F-7.2°C 40% 3.7 mph SW6.0 kmh SW 9.8 mph15.8 kmh 29.62 in1003.0 mb 0.00 in0.0 mm 0.00 in/hr0.0 mm/hr 0.00 in0.0 mm
12:00 PM 41.5°F5.3°C 21.6°F-5.8°C 45% 2.9 mph W4.7 kmh W 6.9 mph11.1 kmh 29.62 in1003.0 mb 0.00 in0.0 mm 0.00 in/hr0.0 mm/hr 0.00 in0.0 mm
12:15 PM 41.9°F5.5°C 20.9°F-6.2°C 43% 2.9 mph WSW4.7 kmh WSW 8.9 mph14.3 kmh 29.62 in1003.0 mb 0.00 in0.0 mm 0.00 in/hr0.0 mm/hr 0.00 in0.0 mm
12:30 PM 42.1°F5.6°C 20.5°F-6.4°C 42% 1.7 mph WNW2.7 kmh WNW 5.1 mph8.2 kmh 29.63 in1003.4 mb 0.00 in0.0 mm 0.00 in/hr0.0 mm/hr 0.00 in0.0 mm
12:45 PM 43.0°F6.1°C 22.4°F-5.3°C 44% 3.2 mph WSW5.1 kmh WSW 7.6 mph12.2 kmh 29.63 in1003.4 mb 0.00 in0.0 mm 0.00 in/hr0.0 mm/hr 0.00 in0.0 mm
01:00 PM 43.5°F6.4°C 20.1°F-6.6°C 39% 1.9 mph SW3.1 kmh SW 8.9 mph14.3 kmh 29.64 in1003.7 mb 0.00 in0.0 mm 0.00 in/hr0.0 mm/hr 0.00 in0.0 mm
01:15 PM 44.4°F6.9°C 21.6°F-5.8°C 40% 3.6 mph WSW5.8 kmh WSW 9.6 mph15.4 kmh 29.64 in1003.7 mb 0.00 in0.0 mm 0.00 in/hr0.0 mm/hr 0.00 in0.0 mm
01:30 PM 43.9°F6.6°C 20.4°F-6.4°C 39% 4.1 mph W6.6 kmh W 9.2 mph14.8 kmh 29.65 in1004.1 mb 0.00 in0.0 mm 0.00 in/hr0.0 mm/hr 0.00 in0.0 mm
01:45 PM 45.0°F7.2°C 20.7°F-6.3°C 38% 2.5 mph W4.0 kmh W 8.3 mph13.4 kmh 29.65 in1004.1 mb 0.00 in0.0 mm 0.00 in/hr0.0 mm/hr 0.00 in0.0 mm
02:00 PM 45.3°F7.4°C 21.1°F-6.1°C 38% 2.6 mph W4.2 kmh W 7.6 mph12.2 kmh 29.65 in1004.1 mb 0.00 in0.0 mm 0.00 in/hr0.0 mm/hr 0.00 in0.0 mm
02:15 PM 46.0°F7.8°C 22.4°F-5.3°C 39% 2.3 mph WNW3.7 kmh WNW 8.9 mph14.3 kmh 29.67 in1004.7 mb 0.00 in0.0 mm 0.00 in/hr0.0 mm/hr 0.00 in0.0 mm
02:30 PM 45.1°F7.3°C 20.2°F-6.6°C 37% 9.1 mph N14.6 kmh N 17.0 mph27.4 kmh 29.67 in1004.7 mb 0.00 in0.0 mm 0.00 in/hr0.0 mm/hr 0.00 in0.0 mm
02:45 PM 45.3°F7.4°C 20.4°F-6.4°C 37% 3.8 mph NNE6.1 kmh NNE 10.3 mph16.6 kmh 29.68 in1005.1 mb 0.00 in0.0 mm 0.00 in/hr0.0 mm/hr 0.00 in0.0 mm
03:00 PM 44.8°F7.1°C 19.2°F-7.1°C 36% 7.1 mph N11.4 kmh N 17.2 mph27.7 kmh 29.69 in1005.4 mb 0.00 in0.0 mm 0.00 in/hr0.0 mm/hr 0.00 in0.0 mm
03:15 PM 44.2°F6.8°C 18.8°F-7.3°C 36% 7.7 mph N12.4 kmh N 18.1 mph29.1 kmh 29.70 in1005.8 mb 0.00 in0.0 mm 0.00 in/hr0.0 mm/hr 0.00 in0.0 mm
03:30 PM 44.4°F6.9°C 18.9°F-7.3°C 36% 7.4 mph N11.9 kmh N 17.0 mph27.4 kmh 29.71 in1006.1 mb 0.00 in0.0 mm 0.00 in/hr0.0 mm/hr 0.00 in0.0 mm
03:45 PM 43.9°F6.6°C 19.1°F-7.2°C 37% 6.5 mph N10.5 kmh N 11.9 mph19.2 kmh 29.73 in1006.8 mb 0.00 in0.0 mm 0.00 in/hr0.0 mm/hr 0.00 in0.0 mm
04:00 PM 43.5°F6.4°C 18.8°F-7.3°C 37% 5.4 mph N8.7 kmh N 9.6 mph15.4 kmh 29.73 in1006.8 mb 0.00 in0.0 mm 0.00 in/hr0.0 mm/hr 0.00 in0.0 mm
04:15 PM 43.0°F6.1°C 17.6°F-8.0°C 36% 5.3 mph N8.5 kmh N 13.0 mph20.9 kmh 29.73 in1006.8 mb 0.00 in0.0 mm 0.00 in/hr0.0 mm/hr 0.00 in0.0 mm
04:30 PM 42.1°F5.6°C 15.5°F-9.2°C 34% 10.2 mph N16.4 kmh N 20.6 mph33.2 kmh 29.74 in1007.1 mb 0.00 in0.0 mm 0.00 in/hr0.0 mm/hr 0.00 in0.0 mm
04:45 PM 40.8°F4.9°C 15.7°F-9.1°C 36% 7.3 mph N11.7 kmh N 16.6 mph26.7 kmh 29.75 in1007.5 mb 0.00 in0.0 mm 0.00 in/hr0.0 mm/hr 0.00 in0.0 mm
05:00 PM 40.6°F4.8°C 14.9°F-9.5°C 35% 8.4 mph N13.5 kmh N 20.6 mph33.2 kmh 29.76 in1007.8 mb 0.00 in0.0 mm 0.00 in/hr0.0 mm/hr 0.00 in0.0 mm
05:15 PM 40.6°F4.8°C 14.9°F-9.5°C 35% 12.5 mph N20.1 kmh N 23.7 mph38.1 kmh 29.76 in1007.8 mb 0.00 in0.0 mm 0.00 in/hr0.0 mm/hr 0.00 in0.0 mm
05:30 PM 40.3°F4.6°C 14.6°F-9.7°C 35% 10.7 mph N17.2 kmh N 19.0 mph30.6 kmh 29.77 in1008.1 mb 0.00 in0.0 mm 0.00 in/hr0.0 mm/hr 0.00 in0.0 mm
05:45 PM 40.1°F4.5°C 15.1°F-9.4°C 36% 9.0 mph N14.5 kmh N 19.0 mph30.6 kmh 29.77 in1008.1 mb 0.00 in0.0 mm 0.00 in/hr0.0 mm/hr 0.00 in0.0 mm
06:00 PM 39.7°F4.3°C 14.8°F-9.6°C 36% 7.5 mph N12.1 kmh N 18.3 mph29.5 kmh 29.78 in1008.5 mb 0.00 in0.0 mm 0.00 in/hr0.0 mm/hr 0.00 in0.0 mm
06:15 PM 39.0°F3.9°C 14.8°F-9.6°C 37% 3.7 mph NW6.0 kmh NW 10.7 mph17.2 kmh 29.79 in1008.8 mb 0.00 in0.0 mm 0.00 in/hr0.0 mm/hr 0.00 in0.0 mm
06:30 PM 40.1°F4.5°C 14.4°F-9.8°C 35% 9.8 mph N15.8 kmh N 19.7 mph31.7 kmh 29.80 in1009.1 mb 0.00 in0.0 mm 0.00 in/hr0.0 mm/hr 0.00 in0.0 mm
06:45 PM 39.0°F3.9°C 14.8°F-9.6°C 37% 1.4 mph NW2.3 kmh NW 7.4 mph11.9 kmh 29.81 in1009.5 mb 0.00 in0.0 mm 0.00 in/hr0.0 mm/hr 0.00 in0.0 mm
07:00 PM 38.5°F3.6°C 14.9°F-9.5°C 38% 3.2 mph SE5.1 kmh SE 9.4 mph15.1 kmh 29.82 in1009.8 mb 0.00 in0.0 mm 0.00 in/hr0.0 mm/hr 0.00 in0.0 mm
07:15 PM 38.5°F3.6°C 14.9°F-9.5°C 38% 2.1 mph NNW3.4 kmh NNW 8.9 mph14.3 kmh 29.83 in1010.2 mb 0.00 in0.0 mm 0.00 in/hr0.0 mm/hr 0.00 in0.0 mm
07:30 PM 37.8°F3.2°C 14.9°F-9.5°C 39% 0.8 mph E1.3 kmh E 3.8 mph6.1 kmh 29.84 in1010.5 mb 0.00 in0.0 mm 0.00 in/hr0.0 mm/hr 0.00 in0.0 mm
07:45 PM 37.9°F3.3°C 15.1°F-9.4°C 39% 1.0 mph E1.6 kmh E 3.1 mph5.0 kmh 29.83 in1010.2 mb 0.00 in0.0 mm 0.00 in/hr0.0 mm/hr 0.00 in0.0 mm
08:00 PM 37.8°F3.2°C 14.9°F-9.5°C 39% 2.6 mph NNE4.2 kmh NNE 8.9 mph14.3 kmh 29.85 in1010.8 mb 0.00 in0.0 mm 0.00 in/hr0.0 mm/hr 0.00 in0.0 mm
08:15 PM 38.8°F3.8°C 14.6°F-9.7°C 37% 4.9 mph N7.9 kmh N 14.8 mph23.8 kmh 29.85 in1010.8 mb 0.00 in0.0 mm 0.00 in/hr0.0 mm/hr 0.00 in0.0 mm
08:30 PM 39.0°F3.9°C 14.1°F-9.9°C 36% 4.5 mph N7.2 kmh N 18.3 mph29.5 kmh 29.86 in1011.2 mb 0.00 in0.0 mm 0.00 in/hr0.0 mm/hr 0.00 in0.0 mm
08:45 PM 39.4°F4.1°C 14.4°F-9.8°C 36% 3.4 mph NNW5.5 kmh NNW 14.5 mph23.3 kmh 29.87 in1011.5 mb 0.00 in0.0 mm 0.00 in/hr0.0 mm/hr 0.00 in0.0 mm
09:00 PM 39.0°F3.9°C 13.5°F-10.3°C 35% 2.0 mph NW3.2 kmh NW 10.3 mph16.6 kmh 29.89 in1012.2 mb 0.00 in0.0 mm 0.00 in/hr0.0 mm/hr 0.00 in0.0 mm
09:15 PM 38.8°F3.8°C 14.6°F-9.7°C 37% 4.6 mph N7.4 kmh N 14.5 mph23.3 kmh 29.90 in1012.5 mb 0.00 in0.0 mm 0.00 in/hr0.0 mm/hr 0.00 in0.0 mm
09:30 PM 38.5°F3.6°C 14.3°F-9.8°C 37% 1.7 mph ENE2.7 kmh ENE 3.1 mph5.0 kmh 29.90 in1012.5 mb 0.00 in0.0 mm 0.00 in/hr0.0 mm/hr 0.00 in0.0 mm